createdAt,value
2018-06-04T00:00:34.998Z,99.90
2018-06-04T00:03:04.821Z,99.90
2018-06-04T00:05:34.463Z,99.90
2018-06-04T00:08:04.229Z,99.90
2018-06-04T00:10:33.868Z,99.90
2018-06-04T00:13:03.764Z,99.90
2018-06-04T00:15:33.425Z,99.90
2018-06-04T00:18:03.260Z,99.90
2018-06-04T00:20:32.961Z,99.90
2018-06-04T00:23:02.657Z,99.90
2018-06-04T00:25:32.372Z,99.90
2018-06-04T00:28:02.221Z,99.90
2018-06-04T00:30:31.858Z,99.90
2018-06-04T00:33:01.543Z,99.90
2018-06-04T00:35:31.308Z,99.90
2018-06-04T00:38:01.194Z,99.90
2018-06-04T00:40:30.936Z,99.90
2018-06-04T00:43:00.627Z,99.90
2018-06-04T00:45:30.304Z,99.90
2018-06-04T00:47:59.948Z,99.90
2018-06-04T00:50:29.579Z,99.90
2018-06-04T00:52:59.253Z,99.90
2018-06-04T00:55:28.961Z,99.90
2018-06-04T00:57:58.688Z,99.90
2018-06-04T01:00:28.305Z,99.90
2018-06-04T01:02:57.942Z,99.90
2018-06-04T01:05:28.111Z,99.90
2018-06-04T01:07:57.773Z,99.90
2018-06-04T01:10:27.488Z,99.90
2018-06-04T01:12:57.165Z,99.90
2018-06-04T01:15:27.043Z,99.90
2018-06-04T01:17:56.760Z,99.90
2018-06-04T01:20:26.494Z,99.90
2018-06-04T01:22:56.140Z,99.90
2018-06-04T01:25:25.774Z,99.90
2018-06-04T01:27:55.463Z,99.90
2018-06-04T01:30:25.127Z,99.90
2018-06-04T01:32:54.820Z,99.90
2018-06-04T01:35:24.486Z,99.90
2018-06-04T01:37:54.172Z,99.90
2018-06-04T01:40:23.914Z,99.90
2018-06-04T01:42:53.589Z,99.90
2018-06-04T01:45:26.130Z,99.90
2018-06-04T01:47:55.807Z,99.90
2018-06-04T01:50:25.493Z,99.90
2018-06-04T01:52:55.275Z,99.90
2018-06-04T01:55:24.889Z,99.90
2018-06-04T01:57:54.572Z,99.90
2018-06-04T02:00:24.276Z,99.90
2018-06-04T02:02:53.971Z,99.90
2018-06-04T02:05:23.584Z,99.90
2018-06-04T02:07:53.239Z,99.90
2018-06-04T02:10:22.894Z,99.90
2018-06-04T02:12:52.582Z,99.90
2018-06-04T02:15:22.266Z,99.90
2018-06-04T02:17:51.969Z,99.90
2018-06-04T02:20:21.603Z,99.90
2018-06-04T02:22:51.268Z,99.90
2018-06-04T02:25:20.923Z,99.90
2018-06-04T02:27:50.544Z,99.90
2018-06-04T02:30:20.167Z,99.90
2018-06-04T02:32:49.816Z,99.90
2018-06-04T02:35:19.479Z,99.90
2018-06-04T02:37:49.113Z,99.90
2018-06-04T02:40:18.826Z,99.90
2018-06-04T02:42:48.562Z,99.90
2018-06-04T02:45:18.266Z,99.90
2018-06-04T02:47:47.972Z,99.90
2018-06-04T02:50:17.691Z,99.90
2018-06-04T02:52:47.299Z,99.90
2018-06-04T02:55:16.909Z,99.90
2018-06-04T02:57:46.561Z,99.90
2018-06-04T03:00:16.313Z,99.90
2018-06-04T03:02:46.024Z,99.90
2018-06-04T03:05:15.697Z,99.90
2018-06-04T03:07:45.351Z,99.90
2018-06-04T03:10:14.969Z,99.90
2018-06-04T03:12:44.676Z,99.90
2018-06-04T03:15:14.596Z,99.90
2018-06-04T03:17:44.331Z,99.90
2018-06-04T03:20:13.971Z,99.90
2018-06-04T03:22:43.657Z,99.90
2018-06-04T03:25:13.324Z,99.90
2018-06-04T03:27:43.105Z,99.90
2018-06-04T03:30:12.781Z,99.90
2018-06-04T03:32:42.382Z,99.90
2018-06-04T03:35:12.090Z,99.90
2018-06-04T03:37:41.727Z,99.90
2018-06-04T03:40:11.485Z,99.90
2018-06-04T03:42:41.203Z,99.90
2018-06-04T03:45:11.722Z,99.90
2018-06-04T03:47:41.423Z,99.90
2018-06-04T03:50:11.148Z,99.90
2018-06-04T03:52:40.837Z,99.90
2018-06-04T03:55:10.585Z,99.90
2018-06-04T03:57:40.251Z,99.90
2018-06-04T04:00:09.949Z,99.90
2018-06-04T04:02:39.589Z,99.90
2018-06-04T04:05:09.297Z,99.90
2018-06-04T04:07:38.929Z,99.90
2018-06-04T04:10:08.603Z,99.90
2018-06-04T04:12:38.313Z,99.90
2018-06-04T04:15:07.903Z,99.90
2018-06-04T04:17:37.615Z,99.90
2018-06-04T04:20:07.339Z,99.90
2018-06-04T04:22:37.009Z,99.90
2018-06-04T04:25:06.730Z,99.90
2018-06-04T04:27:36.365Z,99.90
2018-06-04T04:30:06.609Z,99.90
2018-06-04T04:32:36.353Z,99.90
2018-06-04T04:35:06.011Z,99.90
2018-06-04T04:37:35.721Z,99.90
2018-06-04T04:40:05.548Z,99.90
2018-06-04T04:42:35.279Z,99.90
2018-06-04T04:45:05.071Z,99.90
2018-06-04T04:47:34.811Z,99.90
2018-06-04T04:50:04.610Z,99.90
2018-06-04T04:52:34.223Z,99.90
2018-06-04T04:55:03.889Z,99.90
2018-06-04T04:57:33.803Z,99.90
2018-06-04T05:00:10.304Z,99.90
2018-06-04T05:02:39.975Z,99.90
2018-06-04T05:05:09.678Z,99.90
2018-06-04T05:07:39.426Z,99.90
2018-06-04T05:10:09.064Z,99.90
2018-06-04T05:12:38.736Z,99.90
2018-06-04T05:15:08.391Z,99.90
2018-06-04T05:17:38.029Z,99.90
2018-06-04T05:20:08.011Z,99.90
2018-06-04T05:22:37.671Z,99.90
2018-06-04T05:25:07.362Z,99.90
2018-06-04T05:27:37.099Z,99.90
2018-06-04T05:30:06.760Z,99.90
2018-06-04T05:32:36.967Z,99.90
2018-06-04T05:35:06.709Z,99.90
2018-06-04T05:37:36.441Z,99.90
2018-06-04T05:40:06.199Z,99.90
2018-06-04T05:42:35.820Z,99.90
2018-06-04T05:48:00.539Z,99.90
2018-06-04T05:50:30.346Z,99.90
2018-06-04T05:53:00.142Z,99.90
2018-06-04T05:55:29.914Z,99.90
2018-06-04T05:57:59.614Z,99.90
2018-06-04T06:00:29.246Z,99.90
2018-06-04T06:02:58.921Z,99.90
2018-06-04T06:05:29.028Z,99.90
2018-06-04T06:07:58.754Z,99.90
2018-06-04T06:10:28.428Z,99.90
2018-06-04T06:12:58.228Z,99.90
2018-06-04T06:15:27.883Z,99.90
2018-06-04T06:17:57.484Z,99.90
2018-06-04T06:20:27.099Z,99.90
2018-06-04T06:22:56.882Z,99.90
2018-06-04T06:25:26.694Z,99.90
2018-06-04T06:27:56.344Z,99.90
2018-06-04T06:30:26.081Z,99.90
2018-06-04T06:32:55.872Z,99.90
2018-06-04T06:35:25.591Z,99.90
2018-06-04T06:37:55.401Z,99.90
2018-06-04T06:40:25.271Z,99.90
2018-06-04T06:42:54.954Z,99.90
2018-06-04T06:45:24.635Z,99.90
2018-06-04T06:47:54.340Z,99.90
2018-06-04T06:50:24.036Z,99.90
2018-06-04T06:52:53.778Z,99.90
2018-06-04T06:55:23.527Z,99.90
2018-06-04T06:57:53.177Z,99.90
2018-06-04T07:00:22.886Z,99.90
2018-06-04T07:02:52.544Z,99.90
2018-06-04T07:05:22.236Z,99.90
2018-06-04T07:07:51.932Z,99.90
2018-06-04T07:10:21.651Z,99.90
2018-06-04T07:12:51.296Z,99.90
2018-06-04T07:15:21.103Z,99.90
2018-06-04T07:17:50.912Z,99.90
2018-06-04T07:20:20.727Z,99.90
2018-06-04T07:22:50.486Z,99.90
2018-06-04T07:25:20.224Z,99.90
2018-06-04T07:27:49.857Z,99.90
2018-06-04T07:30:19.523Z,99.90
2018-06-04T07:32:49.226Z,99.90
2018-06-04T07:35:19.021Z,99.90
2018-06-04T07:37:48.787Z,99.90
2018-06-04T07:40:18.513Z,99.90
2018-06-04T07:42:48.318Z,99.90
2018-06-04T07:45:17.995Z,99.90
2018-06-04T07:47:48.414Z,99.90
2018-06-04T07:50:19.321Z,99.90
2018-06-04T07:52:49.084Z,99.90
2018-06-04T07:55:18.760Z,99.90
2018-06-04T07:57:48.466Z,99.90
2018-06-04T08:00:18.173Z,99.90
2018-06-04T08:02:47.818Z,99.90
2018-06-04T08:05:17.514Z,99.90
2018-06-04T08:07:47.242Z,99.90
2018-06-04T08:10:16.992Z,99.90
2018-06-04T08:12:46.727Z,99.90
2018-06-04T08:15:16.423Z,99.90
2018-06-04T08:17:46.516Z,99.90
2018-06-04T08:20:16.195Z,99.90
2018-06-04T08:22:45.965Z,99.90
2018-06-04T08:25:15.744Z,99.90
2018-06-04T08:27:45.571Z,99.90
2018-06-04T08:30:15.233Z,99.90
2018-06-04T08:32:45.026Z,99.90
2018-06-04T08:35:14.871Z,99.90
2018-06-04T08:37:44.710Z,99.90
2018-06-04T08:40:14.711Z,99.90
2018-06-04T08:42:44.394Z,99.90
2018-06-04T08:45:14.367Z,99.90
2018-06-04T08:47:44.263Z,99.90
2018-06-04T08:50:14.073Z,99.90
2018-06-04T08:52:43.808Z,99.90
2018-06-04T08:55:13.668Z,99.90
2018-06-04T08:57:43.485Z,99.90
2018-06-04T09:00:13.184Z,99.90
2018-06-04T09:02:42.969Z,99.90
2018-06-04T09:05:12.732Z,97.90
2018-06-04T09:07:42.423Z,98.50
2018-06-04T09:10:12.142Z,98.30
2018-06-04T09:12:41.844Z,97.80
2018-06-04T09:15:11.583Z,98.10
2018-06-04T09:17:59.265Z,99.70
2018-06-04T09:20:29.264Z,99.00
2018-06-04T09:22:59.081Z,98.40
2018-06-04T09:25:28.872Z,98.30
2018-06-04T09:27:58.521Z,98.20
2018-06-04T09:30:28.287Z,98.40
2018-06-04T09:32:57.967Z,99.70
2018-06-04T09:35:27.894Z,99.80
2018-06-04T09:37:57.580Z,98.10
2018-06-04T09:40:27.356Z,99.90
2018-06-04T09:42:57.128Z,99.00
2018-06-04T09:45:26.814Z,99.10
2018-06-04T09:47:56.530Z,99.70
2018-06-04T09:50:26.317Z,98.50
2018-06-04T09:52:56.072Z,98.30
2018-06-04T09:55:25.784Z,98.40
2018-06-04T09:57:55.556Z,99.30
2018-06-04T10:00:30.547Z,98.20
2018-06-04T10:03:00.280Z,98.20
2018-06-04T10:05:30.199Z,97.70
2018-06-04T10:08:00.160Z,98.50
2018-06-04T10:10:29.817Z,96.90
2018-06-04T10:12:59.630Z,99.90
2018-06-04T10:15:29.421Z,96.80
2018-06-04T10:17:59.269Z,98.00
2018-06-04T10:20:29.277Z,97.60
2018-06-04T10:22:59.044Z,98.00
2018-06-04T10:25:28.849Z,97.60
2018-06-04T10:27:58.607Z,97.10
2018-06-04T10:30:28.540Z,97.80
2018-06-04T10:32:58.458Z,98.70
2018-06-04T10:35:28.199Z,97.60
2018-06-04T10:37:57.919Z,98.00
2018-06-04T10:40:27.700Z,96.90
2018-06-04T10:42:57.447Z,97.10
2018-06-04T10:45:27.197Z,96.10
2018-06-04T10:47:57.033Z,95.20
2018-06-04T10:50:26.822Z,96.20
2018-06-04T10:52:56.677Z,98.40
2018-06-04T10:55:26.418Z,97.00
2018-06-04T10:57:56.201Z,97.50
2018-06-04T11:00:25.947Z,96.80
2018-06-04T11:02:55.670Z,96.70
2018-06-04T11:05:25.358Z,95.70
2018-06-04T11:07:55.090Z,95.30
2018-06-04T11:10:24.910Z,95.60
2018-06-04T11:12:54.703Z,95.30
2018-06-04T11:15:24.640Z,95.90
2018-06-04T11:17:54.515Z,95.10
2018-06-04T11:20:24.256Z,94.80
2018-06-04T11:22:53.938Z,95.70
2018-06-04T11:25:23.683Z,95.10
2018-06-04T11:27:53.618Z,95.80
2018-06-04T11:30:23.484Z,93.80
2018-06-04T11:32:53.237Z,94.90
2018-06-04T11:35:23.036Z,95.70
2018-06-04T11:37:52.787Z,96.60
2018-06-04T11:40:22.540Z,96.10
2018-06-04T11:42:52.272Z,96.60
2018-06-04T11:45:21.909Z,96.50
2018-06-04T11:47:51.672Z,97.20
2018-06-04T11:50:21.383Z,98.40
2018-06-04T11:52:51.133Z,99.50
2018-06-04T11:55:20.812Z,99.50
2018-06-04T11:57:50.469Z,98.80
2018-06-04T12:00:20.170Z,99.00
2018-06-04T12:02:49.905Z,99.70
2018-06-04T12:05:19.669Z,99.90
2018-06-04T12:07:49.377Z,99.90
2018-06-04T12:10:19.134Z,99.20
2018-06-04T12:12:48.813Z,99.60
2018-06-04T12:15:18.513Z,99.30
2018-06-04T12:17:48.285Z,97.40
2018-06-04T12:20:17.921Z,97.50
2018-06-04T12:22:47.604Z,97.50
2018-06-04T12:25:17.362Z,97.80
2018-06-04T12:27:47.593Z,98.30
2018-06-04T12:30:17.384Z,97.40
2018-06-04T12:32:47.105Z,98.30
2018-06-04T12:35:16.739Z,96.60
2018-06-04T12:37:46.441Z,96.60
2018-06-04T12:40:16.184Z,98.10
2018-06-04T12:42:45.946Z,97.90
2018-06-04T12:45:15.651Z,97.80
2018-06-04T12:47:45.332Z,97.40
2018-06-04T12:50:15.012Z,97.70
2018-06-04T12:52:44.726Z,98.90
2018-06-04T12:55:14.442Z,99.60
2018-06-04T12:57:44.151Z,99.50
2018-06-04T13:00:13.936Z,99.20
2018-06-04T13:02:43.639Z,99.80
2018-06-04T13:05:13.335Z,99.50
2018-06-04T13:07:43.146Z,99.90
2018-06-04T13:10:12.991Z,99.40
2018-06-04T13:12:42.776Z,99.50
2018-06-04T13:15:12.507Z,98.90
2018-06-04T13:17:43.645Z,98.80
2018-06-04T13:20:19.733Z,98.70
2018-06-04T13:22:49.417Z,98.50
2018-06-04T13:25:19.201Z,98.80
2018-06-04T13:27:48.849Z,98.10
2018-06-04T13:30:18.676Z,98.90
2018-06-04T13:32:48.405Z,98.80
2018-06-04T13:35:18.209Z,97.80
2018-06-04T13:37:47.972Z,98.20
2018-06-04T13:40:17.805Z,98.30
2018-06-04T13:42:47.665Z,98.60
2018-06-04T13:45:17.354Z,97.40
2018-06-04T13:47:47.086Z,98.00
2018-06-04T13:50:16.938Z,97.90
2018-06-04T13:52:46.706Z,98.20
2018-06-04T13:55:16.430Z,98.00
2018-06-04T13:57:46.157Z,98.50
2018-06-04T14:00:16.341Z,98.90
2018-06-04T14:02:46.489Z,98.60
2018-06-04T14:05:16.307Z,99.00
2018-06-04T14:07:46.041Z,98.60
2018-06-04T14:10:19.493Z,98.30
2018-06-04T14:12:49.217Z,98.30
2018-06-04T14:15:19.081Z,98.20
2018-06-04T14:17:48.857Z,98.20
2018-06-04T14:20:18.665Z,98.60
2018-06-04T14:22:48.400Z,98.40
2018-06-04T14:25:18.028Z,98.70
2018-06-04T14:27:47.705Z,98.00
2018-06-04T14:30:17.383Z,97.80
2018-06-04T14:32:47.413Z,98.00
2018-06-04T14:35:17.146Z,98.50
2018-06-04T14:37:46.901Z,97.60
2018-06-04T14:40:16.557Z,97.70
2018-06-04T14:42:46.256Z,97.40
2018-06-04T14:45:15.883Z,96.60
2018-06-04T14:47:45.631Z,96.90
2018-06-04T14:50:15.266Z,95.90
2018-06-04T14:52:44.980Z,95.80
2018-06-04T14:55:14.677Z,95.90
2018-06-04T14:57:44.368Z,95.60
2018-06-04T15:00:14.057Z,95.80
2018-06-04T15:02:43.761Z,95.80
2018-06-04T15:05:13.500Z,95.30
2018-06-04T15:07:43.911Z,95.10
2018-06-04T15:10:13.624Z,95.70
2018-06-04T15:12:43.267Z,95.20
2018-06-04T15:15:12.936Z,95.80
2018-06-04T15:17:43.348Z,96.60
2018-06-04T15:20:13.089Z,96.60
2018-06-04T15:22:42.776Z,96.10
2018-06-04T15:25:12.485Z,96.80
2018-06-04T15:27:42.118Z,97.00
2018-06-04T15:30:11.807Z,96.70
2018-06-04T15:32:41.484Z,96.50
2018-06-04T15:35:11.263Z,97.00
2018-06-04T15:37:41.147Z,98.20
2018-06-04T15:40:12.231Z,97.30
2018-06-04T15:42:42.138Z,98.10
2018-06-04T15:45:11.826Z,97.80
2018-06-04T15:47:44.728Z,97.40
2018-06-04T15:50:14.523Z,97.70
2018-06-04T15:52:44.309Z,98.30
2018-06-04T15:55:14.011Z,97.90
2018-06-04T15:57:43.656Z,98.20
2018-06-04T16:00:13.531Z,98.10
2018-06-04T16:02:43.331Z,98.10
2018-06-04T16:05:13.071Z,98.00
2018-06-04T16:07:42.828Z,98.20
2018-06-04T16:10:12.945Z,98.20
2018-06-04T16:12:43.730Z,98.40
2018-06-04T16:15:13.532Z,98.80
2018-06-04T16:17:43.259Z,99.10
2018-06-04T16:20:13.021Z,99.20
2018-06-04T16:22:42.766Z,99.20
2018-06-04T16:25:12.487Z,98.20
2018-06-04T16:27:43.184Z,97.40
2018-06-04T16:30:12.900Z,96.70
2018-06-04T16:32:42.620Z,96.10
2018-06-04T16:35:12.334Z,96.70
2018-06-04T16:37:42.102Z,96.50
2018-06-04T16:40:11.858Z,96.10
2018-06-04T16:42:41.609Z,95.90
2018-06-04T16:45:11.368Z,96.50
2018-06-04T16:47:41.168Z,96.10
2018-06-04T16:50:10.998Z,95.60
2018-06-04T16:52:41.784Z,96.80
2018-06-04T16:55:11.575Z,95.60
2018-06-04T16:57:41.334Z,95.40
2018-06-04T17:00:11.071Z,96.90
2018-06-04T17:02:40.859Z,96.80
2018-06-04T17:05:10.693Z,97.00
2018-06-04T17:07:41.510Z,97.80
2018-06-04T17:10:11.215Z,98.10
2018-06-04T17:12:41.203Z,98.20
2018-06-04T17:15:11.010Z,98.70
2018-06-04T17:17:42.724Z,98.70
2018-06-04T17:20:12.467Z,98.90
2018-06-04T17:22:42.337Z,98.80
2018-06-04T17:25:12.042Z,98.40
2018-06-04T17:27:41.704Z,98.30
2018-06-04T17:30:11.539Z,98.30
2018-06-04T17:35:10.250Z,97.80
2018-06-04T17:37:40.334Z,98.30
2018-06-04T17:40:10.125Z,97.60
2018-06-04T17:42:39.932Z,97.50
2018-06-04T17:45:09.666Z,97.40
2018-06-04T17:47:39.394Z,97.20
2018-06-04T17:50:09.322Z,97.40
2018-06-04T17:52:39.417Z,97.90
2018-06-04T17:55:09.644Z,97.70
2018-06-04T17:57:39.497Z,97.70
2018-06-04T18:00:09.267Z,97.50
2018-06-04T18:03:44.261Z,97.50
2018-06-04T18:06:14.358Z,97.70
2018-06-04T18:08:44.109Z,97.90
2018-06-04T18:11:13.850Z,98.00
2018-06-04T18:13:43.591Z,98.00
2018-06-04T18:16:13.218Z,98.50
2018-06-04T18:18:42.947Z,98.60
2018-06-04T18:21:13.015Z,97.70
2018-06-04T18:23:42.746Z,98.30
2018-06-04T18:26:12.398Z,98.10
2018-06-04T18:28:42.404Z,98.20
2018-06-04T18:31:12.045Z,97.90
2018-06-04T18:33:41.760Z,97.90
2018-06-04T18:36:11.489Z,97.90
2018-06-04T18:38:41.239Z,98.10
2018-06-04T18:41:10.954Z,97.90
2018-06-04T18:43:40.806Z,97.70
2018-06-04T18:46:10.515Z,97.70
2018-06-04T18:48:40.153Z,97.60
2018-06-04T18:51:09.913Z,97.50
2018-06-04T18:53:39.571Z,97.60
2018-06-04T18:56:09.303Z,97.60
2018-06-04T18:58:38.984Z,98.10
2018-06-04T19:01:08.712Z,98.00
2018-06-04T19:06:07.448Z,98.30
2018-06-04T19:08:37.258Z,98.30
2018-06-04T19:11:07.023Z,98.40
2018-06-04T19:13:37.099Z,98.20
2018-06-04T19:16:06.777Z,98.10
2018-06-04T19:18:36.463Z,98.40
2018-06-04T19:21:06.185Z,98.80
2018-06-04T19:26:05.010Z,99.00
2018-06-04T19:28:34.676Z,98.90
2018-06-04T19:31:04.401Z,99.00
2018-06-04T19:33:34.142Z,98.90
2018-06-04T19:36:03.922Z,98.90
2018-06-04T19:38:33.569Z,99.20
2018-06-04T19:41:03.249Z,99.20
2018-06-04T19:43:32.959Z,99.40
2018-06-04T19:46:02.894Z,99.30
2018-06-04T19:48:32.531Z,99.60
2018-06-04T19:51:02.131Z,99.40
2018-06-04T19:53:31.828Z,99.70
2018-06-04T19:56:01.772Z,99.60
2018-06-04T19:58:31.482Z,99.80
2018-06-04T20:01:01.289Z,99.70
2018-06-04T20:03:30.921Z,99.90
2018-06-04T20:06:00.722Z,99.90
2018-06-04T20:08:30.415Z,99.90
2018-06-04T20:11:00.203Z,99.90
2018-06-04T20:13:29.933Z,99.90
2018-06-04T20:15:59.681Z,99.90
2018-06-04T20:18:29.448Z,99.90
2018-06-04T20:20:59.070Z,99.90
2018-06-04T20:23:28.761Z,99.90
2018-06-04T20:25:58.455Z,99.90
2018-06-04T20:28:28.102Z,99.90
2018-06-04T20:30:57.780Z,99.90
2018-06-04T20:33:27.405Z,99.90
2018-06-04T20:35:57.123Z,99.90
2018-06-04T20:38:26.860Z,99.90
2018-06-04T20:40:56.503Z,99.90
2018-06-04T20:43:26.290Z,99.90
2018-06-04T20:45:56.000Z,99.90
2018-06-04T20:48:25.816Z,99.90
2018-06-04T20:50:55.566Z,99.90
2018-06-04T20:53:25.324Z,99.90
2018-06-04T20:55:55.016Z,99.90
2018-06-04T20:58:24.723Z,99.90
2018-06-04T21:00:54.335Z,99.90
2018-06-04T21:03:23.992Z,99.90
2018-06-04T21:05:53.676Z,99.90
2018-06-04T21:08:23.417Z,99.90
2018-06-04T21:10:53.101Z,99.90
2018-06-04T21:13:22.840Z,99.90
2018-06-04T21:15:52.503Z,99.90
2018-06-04T21:18:22.240Z,99.90
2018-06-04T21:20:51.871Z,99.90
2018-06-04T21:25:50.592Z,99.90
2018-06-04T21:28:20.239Z,99.90
2018-06-04T21:30:49.898Z,99.90
2018-06-04T21:33:19.582Z,99.90
2018-06-04T21:35:49.236Z,99.90
2018-06-04T21:38:18.958Z,99.90
2018-06-04T21:40:48.627Z,99.90
2018-06-04T21:43:18.347Z,99.90
2018-06-04T21:45:47.938Z,99.90
2018-06-04T21:48:17.593Z,99.90
2018-06-04T21:50:47.302Z,99.90
2018-06-04T21:53:16.977Z,99.90
2018-06-04T21:55:46.670Z,99.90
2018-06-04T21:58:16.337Z,99.90
2018-06-04T22:00:46.080Z,99.90
2018-06-04T22:03:15.829Z,99.90
2018-06-04T22:05:45.483Z,99.90
2018-06-04T22:08:15.178Z,99.90
2018-06-04T22:10:44.827Z,99.90
2018-06-04T22:13:14.478Z,99.90
2018-06-04T22:15:44.274Z,99.90
2018-06-04T22:18:13.982Z,99.90
2018-06-04T22:20:43.688Z,99.90
2018-06-04T22:23:13.404Z,99.90
2018-06-04T22:25:43.091Z,99.90
2018-06-04T22:28:12.783Z,99.90
2018-06-04T22:30:42.489Z,99.90
2018-06-04T22:33:12.195Z,99.90
2018-06-04T22:35:41.837Z,99.90
2018-06-04T22:38:11.612Z,99.90
2018-06-04T22:40:41.389Z,99.90
2018-06-04T22:43:11.033Z,99.90
2018-06-04T22:45:40.836Z,99.90
2018-06-04T22:48:10.514Z,99.90
2018-06-04T22:50:40.326Z,99.90
2018-06-04T22:53:09.958Z,99.90
2018-06-04T22:55:39.672Z,99.90
2018-06-04T22:58:09.364Z,99.90
2018-06-04T23:00:39.034Z,99.90
2018-06-04T23:03:08.686Z,99.90
2018-06-04T23:05:38.446Z,99.90
2018-06-04T23:08:08.109Z,99.90
2018-06-04T23:10:37.853Z,99.90
2018-06-04T23:13:07.560Z,99.90
2018-06-04T23:15:37.193Z,99.90
2018-06-04T23:18:06.888Z,99.90
2018-06-04T23:20:36.552Z,99.90
2018-06-04T23:23:06.270Z,99.90
2018-06-04T23:25:35.910Z,99.90
2018-06-04T23:28:05.560Z,99.90
2018-06-04T23:30:35.326Z,99.90
2018-06-04T23:33:04.975Z,99.90
2018-06-04T23:35:34.725Z,99.90
2018-06-04T23:38:04.445Z,99.90
2018-06-04T23:40:34.063Z,99.90
2018-06-04T23:43:03.790Z,99.90
2018-06-04T23:45:33.433Z,99.90
2018-06-04T23:48:03.131Z,99.90
2018-06-04T23:50:32.784Z,99.90
2018-06-04T23:53:02.348Z,99.90
2018-06-04T23:55:32.025Z,99.90
2018-06-04T23:58:01.970Z,99.90
